Time;durP1;ratioP1;P1;durP2;ratioP2;P2;SDS_P1;SDS_P2;PMS_P1;PMS_P2;Temp;Humidity;BMP_temperature;BMP_pressure;BME280_temperature;BME280_humidity;BME280_pressure;Samples;Min_cycle;Max_cycle;Signal;HPM_P1;HPM_P2
2021/09/30 00:01:52;;;;;;;;;;;;;;;21.50;59.11;101897.91;5036746;28;2039;-42
2021/09/30 00:04:18;;;;;;;;;;;;;;;21.47;58.51;101881.16;5043339;28;1804;-42
2021/09/30 00:06:44;;;;;;;;;;;;;;;21.48;59.01;101893.66;5043664;28;1043;-42
2021/09/30 00:09:11;;;;;;;;;;;;;;;21.47;58.45;101905.38;5042831;28;1827;-42
2021/09/30 00:11:43;;;;;;;;;;;;;;;21.48;58.75;101894.50;5033219;28;1800;-41
2021/09/30 00:14:13;;;;;;;;;;;;;;;21.47;59.09;101886.53;5032427;28;1997;-41
2021/09/30 00:16:58;;;;;;;;;;;;;;;21.44;58.88;101888.50;5043427;28;1090;-42
2021/09/30 00:33:22;;;;;;;;;;;;;;;21.44;58.44;101915.41;5024271;28;1906;-42
2021/09/30 00:35:58;;;;;;;;;;;;;;;21.48;58.86;101910.63;5044937;28;1054;-42
2021/09/30 00:41:19;;;;;;;;;;;;;;;21.47;58.33;101916.13;5029569;28;2110;-42
2021/09/30 00:46:42;;;;;;;;;;;;;;;21.48;58.75;101915.19;5030041;28;1763;-43
2021/09/30 00:49:17;;;;;;;;;;;;;;;21.48;58.98;101921.41;5043067;28;1807;-42
2021/09/30 00:51:51;;;;;;;;;;;;;;;21.48;58.50;101917.88;5040156;28;958;-42
2021/09/30 00:54:39;;;;;;;;;;;;;;;21.44;58.48;101928.00;5029010;28;2054;-42
2021/09/30 01:58:52;;;;;;;;;;;;;;;21.42;58.96;101928.09;5021891;28;1774;-42
2021/09/30 02:18:31;;;;;;;;;;;;;;;21.40;58.30;101913.91;5035866;28;1715;-60
2021/09/30 02:21:27;;;;;;;;;;;;;;;21.38;58.62;101910.50;5042930;28;1484;-60
2021/09/30 02:27:11;;;;;;;;;;;;;;;21.42;58.79;101920.03;5037680;28;1649;-59
2021/09/30 02:29:55;;;;;;;;;;;;;;;21.37;58.46;101908.78;5024912;28;1652;-60
2021/09/30 03:00:01;;;;;;;;;;;;;;;21.39;58.29;101917.59;5025994;28;1707;-60
2021/09/30 03:02:29;;;;;;;;;;;;;;;21.37;58.36;101913.31;5031926;28;1479;-59
2021/09/30 03:04:57;;;;;;;;;;;;;;;21.39;58.83;101916.75;5041438;28;1597;-56
2021/09/30 03:07:25;;;;;;;;;;;;;;;21.35;58.59;101923.38;5040802;28;986;-56
2021/09/30 03:09:53;;;;;;;;;;;;;;;21.36;58.68;101923.22;5049079;28;1255;-55
2021/09/30 03:12:22;;;;;;;;;;;;;;;21.34;59.23;101902.78;5048351;28;1475;-55
2021/09/30 03:14:59;;;;;;;;;;;;;;;21.35;58.52;101944.88;5048039;28;1910;-60
2021/09/30 03:17:31;;;;;;;;;;;;;;;21.34;58.91;101941.31;5018898;28;1689;-56
2021/09/30 03:20:04;;;;;;;;;;;;;;;21.34;58.87;101925.16;5026834;28;1596;-55
2021/09/30 03:22:32;;;;;;;;;;;;;;;21.34;58.21;101927.88;5028815;28;1561;-55
2021/09/30 03:24:59;;;;;;;;;;;;;;;21.34;58.56;101924.31;5029423;28;1003;-56
2021/09/30 03:27:26;;;;;;;;;;;;;;;21.33;58.56;101928.84;5024914;28;1732;-60
2021/09/30 03:29:53;;;;;;;;;;;;;;;21.32;58.33;101937.88;5048127;28;1523;-59
2021/09/30 03:32:20;;;;;;;;;;;;;;;21.34;58.61;101925.16;5022937;28;1760;-60
2021/09/30 03:34:47;;;;;;;;;;;;;;;21.32;58.64;101920.91;5027969;28;1910;-60
2021/09/30 03:37:13;;;;;;;;;;;;;;;21.30;58.29;101921.00;5034224;28;1012;-56
2021/09/30 03:39:41;;;;;;;;;;;;;;;21.32;58.99;101945.97;5025497;28;1867;-60
2021/09/30 03:42:08;;;;;;;;;;;;;;;21.30;58.37;101937.16;5026480;28;1798;-56
2021/09/30 03:44:35;;;;;;;;;;;;;;;21.33;58.15;101936.06;5044888;28;1624;-56
2021/09/30 03:47:01;;;;;;;;;;;;;;;21.30;58.28;101929.09;5045635;28;1620;-59
2021/09/30 03:49:30;;;;;;;;;;;;;;;21.31;58.15;101954.16;5035867;28;1628;-60
2021/09/30 03:52:03;;;;;;;;;;;;;;;21.31;58.49;101951.47;5032006;28;983;-60
2021/09/30 03:54:37;;;;;;;;;;;;;;;21.32;59.05;101943.28;5026016;28;1911;-59
2021/09/30 03:57:09;;;;;;;;;;;;;;;21.31;58.50;101941.56;5042506;28;1544;-59
2021/09/30 03:59:35;;;;;;;;;;;;;;;21.33;57.99;101950.38;5027892;28;1628;-55
2021/09/30 04:02:02;;;;;;;;;;;;;;;21.33;58.95;101949.50;5040190;28;1635;-60
2021/09/30 04:04:30;;;;;;;;;;;;;;;21.29;58.35;101967.75;5035649;28;1629;-56
2021/09/30 04:06:58;;;;;;;;;;;;;;;21.31;58.16;101951.47;5034009;28;1530;-55
2021/09/30 04:09:27;;;;;;;;;;;;;;;21.30;58.55;101944.38;5044327;28;1083;-56
2021/09/30 04:11:55;;;;;;;;;;;;;;;21.31;58.33;101951.47;5041687;28;1562;-60
2021/09/30 04:14:23;;;;;;;;;;;;;;;21.30;58.65;101949.75;5035101;28;1975;-56
2021/09/30 04:16:49;;;;;;;;;;;;;;;21.28;58.15;101947.19;5031269;28;1069;-60
2021/09/30 04:19:17;;;;;;;;;;;;;;;21.29;59.04;101951.59;5022286;28;1707;-60
2021/09/30 04:21:43;;;;;;;;;;;;;;;21.31;58.27;101968.47;5022168;28;1684;-56
2021/09/30 04:24:10;;;;;;;;;;;;;;;21.29;58.14;101964.19;5027922;28;1511;-59
2021/09/30 04:26:36;;;;;;;;;;;;;;;21.27;58.51;101956.25;5026559;28;1592;-60
2021/09/30 04:29:03;;;;;;;;;;;;;;;21.27;58.02;101950.88;5035018;28;1576;-55
2021/09/30 04:31:31;;;;;;;;;;;;;;;21.26;58.50;101967.97;5039831;28;1565;-60
2021/09/30 04:33:58;;;;;;;;;;;;;;;21.31;59.02;101981.94;5019809;28;1975;-55
2021/09/30 04:36:24;;;;;;;;;;;;;;;21.25;58.61;101953.69;5028079;28;1055;-59
2021/09/30 04:38:51;;;;;;;;;;;;;;;21.26;58.20;101970.66;5040925;28;1790;-55
2021/09/30 04:41:18;;;;;;;;;;;;;;;21.27;59.09;101967.00;5037512;28;1620;-60
2021/09/30 04:43:45;;;;;;;;;;;;;;;21.24;58.14;101967.25;5024571;28;1479;-60
2021/09/30 04:46:12;;;;;;;;;;;;;;;21.26;58.89;101978.75;5032984;28;1557;-60
2021/09/30 04:48:40;;;;;;;;;;;;;;;21.25;59.02;101991.34;5046778;28;1569;-60
2021/09/30 04:51:07;;;;;;;;;;;;;;;21.27;58.13;101977.78;5045632;28;966;-56
2021/09/30 04:53:34;;;;;;;;;;;;;;;21.29;58.07;101975.81;5032148;28;1906;-56
2021/09/30 04:56:01;;;;;;;;;;;;;;;21.28;58.44;101974.09;5024737;28;1565;-60
2021/09/30 04:58:28;;;;;;;;;;;;;;;21.28;58.23;101990.22;5028754;28;1416;-56
2021/09/30 05:00:54;;;;;;;;;;;;;;;21.24;58.79;101978.84;5045480;28;1479;-56
2021/09/30 05:03:21;;;;;;;;;;;;;;;21.31;58.58;102003.47;5043381;28;1615;-55
2021/09/30 05:05:49;;;;;;;;;;;;;;;21.24;58.91;102000.38;5025651;28;1099;-56
2021/09/30 05:08:16;;;;;;;;;;;;;;;21.25;58.49;101985.13;5037382;28;1451;-60
2021/09/30 05:10:44;;;;;;;;;;;;;;;21.30;58.07;101977.50;5041965;28;1627;-56
2021/09/30 05:13:12;;;;;;;;;;;;;;;21.30;58.44;102003.56;5025712;28;1565;-60
2021/09/30 05:15:39;;;;;;;;;;;;;;;21.31;58.38;101998.06;5026494;28;1905;-59
2021/09/30 05:18:06;;;;;;;;;;;;;;;21.29;58.37;102008.09;5029479;28;1680;-59
2021/09/30 05:20:33;;;;;;;;;;;;;;;21.28;57.95;101984.00;5028161;28;1688;-59
2021/09/30 05:23:01;;;;;;;;;;;;;;;21.26;58.39;101984.97;5028281;28;1366;-60
2021/09/30 05:25:27;;;;;;;;;;;;;;;21.31;58.89;102011.53;5044950;28;1663;-59
2021/09/30 05:27:54;;;;;;;;;;;;;;;21.27;58.88;102010.06;5045228;28;1647;-55
2021/09/30 05:30:21;;;;;;;;;;;;;;;21.29;58.00;101991.97;5045898;28;974;-60
2021/09/30 05:32:48;;;;;;;;;;;;;;;21.30;57.95;102000.88;5023596;28;1727;-60
2021/09/30 05:35:15;;;;;;;;;;;;;;;21.35;57.89;102001.38;5023437;28;1906;-56
2021/09/30 05:37:41;;;;;;;;;;;;;;;21.31;58.17;101986.44;5034393;28;1518;-56
2021/09/30 05:40:14;;;;;;;;;;;;;;;21.37;58.64;102007.50;5041915;28;1540;-60
2021/09/30 05:42:41;;;;;;;;;;;;;;;21.33;57.85;101987.16;5024636;28;979;-56
2021/09/30 05:45:08;;;;;;;;;;;;;;;21.36;57.88;101982.41;5023054;28;1700;-56
2021/09/30 05:47:35;;;;;;;;;;;;;;;21.40;57.75;101983.03;5044943;28;1478;-60
2021/09/30 05:50:02;;;;;;;;;;;;;;;21.43;57.76;101981.00;5024988;28;1771;-60
2021/09/30 05:52:29;;;;;;;;;;;;;;;21.46;58.50;101998.72;5033583;28;1775;-60
2021/09/30 05:54:56;;;;;;;;;;;;;;;21.45;58.34;101973.66;5026546;28;1898;-60
2021/09/30 05:57:24;;;;;;;;;;;;;;;21.52;58.03;102008.16;5044017;28;1506;-59
2021/09/30 05:59:50;;;;;;;;;;;;;;;21.47;57.74;102004.94;5028410;28;1495;-55
2021/09/30 06:10:32;;;;;;;;;;;;;;;21.55;58.17;102014.16;5043044;28;1420;-60
2021/09/30 06:13:02;;;;;;;;;;;;;;;21.53;58.41;102010.72;5043332;28;1650;-56
2021/09/30 06:15:31;;;;;;;;;;;;;;;21.51;58.61;102001.06;5041683;28;1973;-55
2021/09/30 06:18:00;;;;;;;;;;;;;;;21.51;58.13;101998.38;5047582;28;1516;-55
2021/09/30 06:20:26;;;;;;;;;;;;;;;21.53;58.35;101999.09;5032218;28;1527;-60
2021/09/30 06:22:53;;;;;;;;;;;;;;;21.51;57.81;101999.22;5040978;28;1565;-55
2021/09/30 06:25:19;;;;;;;;;;;;;;;21.52;58.15;102008.16;5024136;28;1573;-59
2021/09/30 06:27:46;;;;;;;;;;;;;;;21.55;58.43;102013.28;5023943;28;1046;-60
2021/09/30 06:30:15;;;;;;;;;;;;;;;21.50;57.74;101986.72;5022586;28;1567;-60
2021/09/30 06:32:41;;;;;;;;;;;;;;;21.54;57.96;102007.03;5044755;28;1568;-56
2021/09/30 06:35:08;;;;;;;;;;;;;;;21.52;58.71;101998.22;5047262;28;1966;-56
2021/09/30 06:37:35;;;;;;;;;;;;;;;21.50;58.48;102023.56;5034359;28;1588;-60
2021/09/30 06:40:02;;;;;;;;;;;;;;;21.52;58.54;102008.16;5045769;28;982;-55
2021/09/30 06:42:28;;;;;;;;;;;;;;;21.51;58.20;102004.59;5022278;28;1465;-60
2021/09/30 06:44:55;;;;;;;;;;;;;;;21.51;57.94;102001.06;5044841;28;1447;-56
2021/09/30 06:47:23;;;;;;;;;;;;;;;21.49;57.76;102009.25;5028689;28;1744;-56
2021/09/30 06:49:49;;;;;;;;;;;;;;;21.51;57.73;102027.97;5023767;28;1589;-56
2021/09/30 06:52:16;;;;;;;;;;;;;;;21.54;57.75;102008.88;5018061;28;1980;-56
2021/09/30 06:54:43;;;;;;;;;;;;;;;21.55;57.70;102010.59;5025407;28;1906;-60
2021/09/30 06:57:09;;;;;;;;;;;;;;;21.54;57.99;102012.41;5024783;28;1503;-60
2021/09/30 06:59:36;;;;;;;;;;;;;;;21.56;58.37;102025.75;5037382;28;1585;-56
2021/09/30 07:02:06;;;;;;;;;;;;;;;21.54;58.47;102011.56;5041989;28;1468;-56
2021/09/30 07:04:35;;;;;;;;;;;;;;;21.56;58.39;102006.91;5031475;28;1645;-56
2021/09/30 07:07:02;;;;;;;;;;;;;;;21.54;58.12;102006.19;5029153;28;1051;-55
2021/09/30 07:09:30;;;;;;;;;;;;;;;21.54;58.38;102006.19;5043583;28;1759;-60
2021/09/30 07:11:57;;;;;;;;;;;;;;;21.54;57.88;102006.19;5028507;28;1428;-56
2021/09/30 07:14:24;;;;;;;;;;;;;;;21.55;57.82;102008.75;5022295;28;1985;-60
2021/09/30 07:16:50;;;;;;;;;;;;;;;21.58;58.13;102013.03;5030215;28;1147;-60
2021/09/30 07:19:17;;;;;;;;;;;;;;;21.57;58.22;102004.13;5044628;28;1588;-55
2021/09/30 07:21:45;;;;;;;;;;;;;;;21.61;58.08;102013.66;5044131;28;1552;-56
2021/09/30 07:24:12;;;;;;;;;;;;;;;21.58;58.40;101999.56;5041135;28;1483;-60
2021/09/30 07:26:38;;;;;;;;;;;;;;;21.60;58.34;102000.31;5041801;28;1475;-55
2021/09/30 07:29:05;;;;;;;;;;;;;;;21.62;58.33;102009.97;5042566;28;1605;-59
2021/09/30 07:31:32;;;;;;;;;;;;;;;21.64;57.79;102015.22;5042175;28;1565;-55
2021/09/30 07:33:58;;;;;;;;;;;;;;;21.63;58.06;102006.31;5043841;28;1565;-60
2021/09/30 07:36:25;;;;;;;;;;;;;;;21.63;58.40;102010.84;5043072;28;1902;-60
2021/09/30 07:38:53;;;;;;;;;;;;;;;21.61;58.22;102007.41;5038601;28;1755;-59
2021/09/30 07:41:20;;;;;;;;;;;;;;;21.60;58.37;102009.22;5034688;28;1483;-55
2021/09/30 07:43:46;;;;;;;;;;;;;;;21.62;57.73;102009.13;5024865;28;1747;-56
2021/09/30 07:46:13;;;;;;;;;;;;;;;21.65;58.48;102003.50;5024994;28;1555;-56
2021/09/30 07:48:39;;;;;;;;;;;;;;;21.65;57.74;102015.13;5025627;28;1616;-60
2021/09/30 07:51:06;;;;;;;;;;;;;;;21.67;58.47;102009.63;5028857;28;1119;-56
2021/09/30 07:53:33;;;;;;;;;;;;;;;21.64;58.29;102004.47;5033761;28;1775;-56
2021/09/30 07:56:01;;;;;;;;;;;;;;;21.67;58.05;102001.53;5025155;28;1902;-56
2021/09/30 07:58:28;;;;;;;;;;;;;;;21.66;58.36;102010.59;5030135;28;1456;-60
2021/09/30 08:00:54;;;;;;;;;;;;;;;21.65;58.30;101993.59;5046264;28;1467;-60
2021/09/30 08:03:21;;;;;;;;;;;;;;;21.68;57.87;102005.94;5044773;28;1561;-56
2021/09/30 08:05:47;;;;;;;;;;;;;;;21.67;58.29;101996.16;5028748;28;970;-55
2021/09/30 08:08:14;;;;;;;;;;;;;;;21.68;57.78;101987.09;5020312;28;1517;-60
2021/09/30 08:10:40;;;;;;;;;;;;;;;21.69;57.66;102007.66;5029512;28;1484;-56
2021/09/30 08:13:08;;;;;;;;;;;;;;;21.71;57.89;102013.78;5043996;28;1562;-59
2021/09/30 08:15:35;;;;;;;;;;;;;;;21.73;58.40;101998.34;5027221;28;1910;-56
2021/09/30 08:18:02;;;;;;;;;;;;;;;21.72;58.53;101993.09;5028326;28;1444;-60
2021/09/30 08:20:29;;;;;;;;;;;;;;;21.68;58.54;101986.25;5041420;28;1577;-56
2021/09/30 08:22:55;;;;;;;;;;;;;;;21.75;58.42;101999.09;5029352;28;1713;-60
2021/09/30 08:25:22;;;;;;;;;;;;;;;21.71;57.76;102005.69;5044298;28;1573;-56
2021/09/30 08:27:49;;;;;;;;;;;;;;;21.75;57.84;102001.78;5025824;28;1363;-56
2021/09/30 08:30:17;;;;;;;;;;;;;;;21.74;58.21;101991.97;5047145;28;1103;-58
2021/09/30 08:32:44;;;;;;;;;;;;;;;21.78;58.39;101996.13;5046834;28;1699;-60
2021/09/30 08:35:11;;;;;;;;;;;;;;;21.77;58.41;101997.13;5046494;28;1971;-60
2021/09/30 08:37:37;;;;;;;;;;;;;;;21.75;57.92;101977.56;5036235;28;1580;-55
2021/09/30 08:40:05;;;;;;;;;;;;;;;21.77;58.46;101980.97;5048334;28;1055;-56
2021/09/30 08:42:31;;;;;;;;;;;;;;;21.76;58.23;101984.63;5046450;28;1504;-57
2021/09/30 08:44:58;;;;;;;;;;;;;;;21.76;58.38;101991.84;5046205;28;1471;-55
2021/09/30 08:47:26;;;;;;;;;;;;;;;21.76;57.99;101989.16;5025486;28;1519;-60
2021/09/30 08:49:53;;;;;;;;;;;;;;;21.77;58.34;101978.28;5026566;28;1584;-60
2021/09/30 08:52:19;;;;;;;;;;;;;;;21.79;58.35;101984.41;5034003;28;1072;-60
2021/09/30 08:54:46;;;;;;;;;;;;;;;21.80;58.13;101975.31;5045389;28;1906;-56
2021/09/30 08:57:13;;;;;;;;;;;;;;;21.79;58.25;101983.53;5024591;28;1672;-56
2021/09/30 08:59:40;;;;;;;;;;;;;;;21.80;57.92;101979.84;5044091;28;1480;-60
2021/09/30 09:02:08;;;;;;;;;;;;;;;21.80;57.79;101969.94;5031471;28;1716;-60
2021/09/30 09:04:36;;;;;;;;;;;;;;;21.83;58.30;101985.84;5036869;28;1581;-56
2021/09/30 09:07:06;;;;;;;;;;;;;;;21.82;58.21;101977.91;5041151;28;1063;-60
2021/09/30 09:09:33;;;;;;;;;;;;;;;21.81;58.31;101982.44;5023918;28;1691;-56
2021/09/30 09:12:04;;;;;;;;;;;;;;;21.80;57.79;101974.47;5039584;28;1624;-59
2021/09/30 09:14:32;;;;;;;;;;;;;;;21.87;58.31;101978.38;5030938;28;1600;-55
2021/09/30 09:16:59;;;;;;;;;;;;;;;21.83;58.09;101977.78;5018937;28;1967;-55
2021/09/30 09:19:39;;;;;;;;;;;;;;;21.88;58.29;101995.41;5016270;28;986;-55
2021/09/30 09:22:10;;;;;;;;;;;;;;;21.81;58.08;101976.19;5046920;28;978;-60
2021/09/30 09:24:36;;;;;;;;;;;;;;;21.85;58.41;101986.59;5045367;28;1490;-56
2021/09/30 09:27:03;;;;;;;;;;;;;;;21.81;58.33;101960.88;5025097;28;1747;-60
2021/09/30 09:29:31;;;;;;;;;;;;;;;21.81;58.15;101966.28;5041004;28;1569;-55
2021/09/30 09:31:59;;;;;;;;;;;;;;;21.78;57.78;101963.81;5043757;28;1475;-56
2021/09/30 09:34:28;;;;;;;;;;;;;;;21.82;58.23;101967.97;5033680;28;1557;-60
2021/09/30 09:37:16;;;;;;;;;;;;;;;21.83;58.25;101967.00;5021943;28;1902;-56
2021/09/30 09:39:43;;;;;;;;;;;;;;;21.84;58.37;101971.44;5044219;28;1499;-56
2021/09/30 09:42:11;;;;;;;;;;;;;;;21.89;58.38;101957.56;5024148;28;1747;-55
2021/09/30 09:44:53;;;;;;;;;;;;;;;21.83;57.99;101969.69;5025097;28;1526;-56
2021/09/30 09:47:20;;;;;;;;;;;;;;;21.86;58.17;101973.97;5038297;28;1467;-60
2021/09/30 09:50:08;;;;;;;;;;;;;;;21.90;57.82;101961.13;5029007;28;1639;-60
2021/09/30 09:52:42;;;;;;;;;;;;;;;21.88;57.79;101961.22;5033505;28;1396;-56
2021/09/30 09:55:10;;;;;;;;;;;;;;;21.84;58.02;101959.78;5041386;28;1905;-60
2021/09/30 09:57:40;;;;;;;;;;;;;;;21.87;57.93;101969.47;5026895;28;974;-56
2021/09/30 10:00:11;;;;;;;;;;;;;;;21.81;58.62;101950.13;5021934;28;1552;-58
2021/09/30 10:02:37;;;;;;;;;;;;;;;21.81;58.11;101955.50;5022410;28;1464;-60
2021/09/30 10:05:05;;;;;;;;;;;;;;;21.87;58.30;101961.38;5024473;28;1487;-60
2021/09/30 10:07:33;;;;;;;;;;;;;;;21.87;58.05;101943.38;5032419;28;1483;-55
2021/09/30 10:10:01;;;;;;;;;;;;;;;21.86;58.14;101947.03;5046183;28;1042;-59
2021/09/30 10:12:27;;;;;;;;;;;;;;;21.89;58.14;101938.72;5036002;28;1420;-60
2021/09/30 10:14:54;;;;;;;;;;;;;;;21.90;57.84;101953.03;5040257;28;1990;-59
2021/09/30 10:17:21;;;;;;;;;;;;;;;21.85;58.48;101945.34;5026327;28;1559;-60
2021/09/30 10:19:47;;;;;;;;;;;;;;;21.84;58.56;101943.63;5043260;28;1609;-60
2021/09/30 10:22:14;;;;;;;;;;;;;;;21.81;58.36;101939.34;5046009;28;978;-60
2021/09/30 10:24:43;;;;;;;;;;;;;;;21.83;58.27;101945.47;5044356;28;1480;-56
2021/09/30 10:27:13;;;;;;;;;;;;;;;21.82;57.92;101941.03;5028873;28;1747;-55
2021/09/30 10:29:43;;;;;;;;;;;;;;;21.78;58.38;101923.44;5019681;28;1530;-59
2021/09/30 10:32:10;;;;;;;;;;;;;;;21.79;58.51;101927.84;5039652;28;1488;-55
2021/09/30 10:34:37;;;;;;;;;;;;;;;21.75;58.56;101923.69;5042679;28;1401;-59
2021/09/30 10:37:17;;;;;;;;;;;;;;;21.75;58.70;101918.31;5039930;28;1902;-55
2021/09/30 10:39:48;;;;;;;;;;;;;;;21.76;58.49;101919.16;5022485;28;1494;-55
2021/09/30 10:42:29;;;;;;;;;;;;;;;21.77;58.70;101928.97;5028056;28;1623;-55
2021/09/30 10:45:10;;;;;;;;;;;;;;;21.78;58.56;101939.59;5026296;28;1732;-59
2021/09/30 10:47:36;;;;;;;;;;;;;;;21.76;57.94;101929.94;5042792;28;1728;-55
2021/09/30 10:50:03;;;;;;;;;;;;;;;21.75;58.35;101925.53;5043214;28;1735;-55
2021/09/30 10:52:31;;;;;;;;;;;;;;;21.77;57.92;101932.50;5035658;28;1640;-55
2021/09/30 10:55:14;;;;;;;;;;;;;;;21.78;58.82;101923.44;5026221;28;1011;-55
2021/09/30 10:57:41;;;;;;;;;;;;;;;21.75;58.65;101930.94;5033334;28;1655;-55
2021/09/30 11:00:11;;;;;;;;;;;;;;;21.73;58.09;101920.28;5044907;28;1731;-60
2021/09/30 11:02:56;;;;;;;;;;;;;;;21.77;58.70;101920.88;5043937;28;1398;-56
2021/09/30 11:05:23;;;;;;;;;;;;;;;21.73;58.69;101914.03;5022164;28;1735;-56
2021/09/30 11:08:18;;;;;;;;;;;;;;;21.75;58.49;101912.94;5032857;28;1880;-55
2021/09/30 11:11:08;;;;;;;;;;;;;;;21.72;58.49;101907.78;5015005;28;1011;-60
2021/09/30 11:13:36;;;;;;;;;;;;;;;21.74;58.45;101903.13;5041207;28;1456;-55
2021/09/30 11:16:08;;;;;;;;;;;;;;;21.77;58.79;101902.88;5019995;28;1971;-58
2021/09/30 11:18:39;;;;;;;;;;;;;;;21.73;58.11;101896.03;5043276;28;1639;-60
2021/09/30 11:21:30;;;;;;;;;;;;;;;21.76;58.70;101889.53;5046170;28;1589;-55
2021/09/30 11:23:57;;;;;;;;;;;;;;;21.76;58.81;101893.09;5032862;28;2384;-55
2021/09/30 11:26:24;;;;;;;;;;;;;;;21.74;58.39;101883.44;5028414;28;1644;-60
2021/09/30 11:28:52;;;;;;;;;;;;;;;21.74;58.64;101895.06;5032369;28;1436;-58
2021/09/30 11:31:23;;;;;;;;;;;;;;;21.78;58.33;101890.28;5035500;28;1540;-60
2021/09/30 11:33:50;;;;;;;;;;;;;;;21.80;58.46;101894.53;5043176;28;1860;-60
2021/09/30 11:36:17;;;;;;;;;;;;;;;21.80;58.66;101896.38;5026753;28;1906;-56
2021/09/30 11:38:44;;;;;;;;;;;;;;;21.79;58.65;101892.00;5031566;28;1648;-55
2021/09/30 11:41:11;;;;;;;;;;;;;;;21.73;58.71;101882.59;5041163;28;1521;-57
2021/09/30 11:43:39;;;;;;;;;;;;;;;21.76;58.34;101885.00;5030368;28;1519;-59
2021/09/30 11:46:20;;;;;;;;;;;;;;;21.77;58.25;101873.28;5047490;28;1499;-56
2021/09/30 11:48:56;;;;;;;;;;;;;;;21.80;58.44;101881.06;5047120;28;2657;-55
2021/09/30 11:51:29;;;;;;;;;;;;;;;21.80;58.16;101882.91;5046772;28;1014;-56
2021/09/30 11:53:55;;;;;;;;;;;;;;;21.83;58.54;101872.75;5031119;28;1980;-60
2021/09/30 11:56:22;;;;;;;;;;;;;;;21.78;58.35;101872.28;5035758;28;1906;-55
2021/09/30 11:58:58;;;;;;;;;;;;;;;21.83;58.51;101875.44;5040979;28;1521;-56
2021/09/30 12:01:32;;;;;;;;;;;;;;;21.81;58.46;101874.72;5026737;28;1672;-55
2021/09/30 12:04:00;;;;;;;;;;;;;;;21.85;58.56;101884.25;5029838;28;1547;-56
2021/09/30 12:06:37;;;;;;;;;;;;;;;21.83;58.49;101885.38;5028830;28;974;-60
2021/09/30 12:09:03;;;;;;;;;;;;;;;21.81;58.28;101880.13;5031014;28;1770;-60
2021/09/30 12:11:32;;;;;;;;;;;;;;;21.78;58.39;101866.88;5026917;28;1522;-60
2021/09/30 12:13:58;;;;;;;;;;;;;;;21.79;58.55;101871.31;5033832;28;1475;-60
2021/09/30 12:16:25;;;;;;;;;;;;;;;21.81;58.82;101868.50;5045095;28;1923;-60
2021/09/30 12:18:58;;;;;;;;;;;;;;;21.77;58.62;101867.88;5045360;28;1536;-56
2021/09/30 12:21:35;;;;;;;;;;;;;;;21.83;58.78;101882.69;5027477;28;1488;-55
2021/09/30 12:24:02;;;;;;;;;;;;;;;21.75;58.57;101856.38;5029277;28;1575;-59
2021/09/30 12:26:30;;;;;;;;;;;;;;;21.82;58.69;101886.34;5026524;28;1628;-56
2021/09/30 12:28:57;;;;;;;;;;;;;;;21.77;58.01;101867.88;5032063;28;1586;-60
2021/09/30 12:31:23;;;;;;;;;;;;;;;21.77;58.67;101862.50;5040995;28;1640;-56
2021/09/30 12:33:50;;;;;;;;;;;;;;;21.84;58.43;101882.56;5023985;28;1641;-56
2021/09/30 12:36:17;;;;;;;;;;;;;;;21.80;58.32;101859.53;5027977;28;1972;-55
2021/09/30 12:38:56;;;;;;;;;;;;;;;21.83;58.22;101878.16;5031105;28;1641;-60
2021/09/30 12:41:23;;;;;;;;;;;;;;;21.79;58.58;101865.91;5026353;28;1632;-55
2021/09/30 12:43:50;;;;;;;;;;;;;;;21.83;58.43;101863.84;5030929;28;1480;-59
2021/09/30 12:46:18;;;;;;;;;;;;;;;21.84;58.36;101863.72;5036630;28;1599;-55
2021/09/30 12:48:48;;;;;;;;;;;;;;;21.78;57.97;101858.81;5027244;28;1578;-55
2021/09/30 12:51:15;;;;;;;;;;;;;;;21.82;58.65;101872.88;5027827;28;1960;-60
2021/09/30 12:53:43;;;;;;;;;;;;;;;21.79;58.60;101854.31;5031591;28;1822;-56
2021/09/30 12:56:12;;;;;;;;;;;;;;;21.81;58.60;101863.09;5023433;28;1906;-55
2021/09/30 12:58:40;;;;;;;;;;;;;;;21.82;57.89;101865.66;5024568;28;1585;-56
2021/09/30 13:01:21;;;;;;;;;;;;;;;21.83;58.53;101861.16;5028029;28;1613;-60
2021/09/30 13:04:02;;;;;;;;;;;;;;;21.81;57.83;101850.50;5044259;28;1606;-60
2021/09/30 13:06:29;;;;;;;;;;;;;;;21.80;58.56;101850.63;5045276;28;974;-60
2021/09/30 13:08:55;;;;;;;;;;;;;;;21.82;58.10;101845.94;5040650;28;1567;-60
2021/09/30 13:11:28;;;;;;;;;;;;;;;21.78;58.04;101850.72;5036375;28;1725;-60
2021/09/30 13:14:13;;;;;;;;;;;;;;;21.82;58.67;101854.88;5033882;28;1600;-56
2021/09/30 13:16:39;;;;;;;;;;;;;;;21.77;58.32;101840.13;5050556;28;1914;-55
2021/09/30 13:19:06;;;;;;;;;;;;;;;21.76;58.50;101844.63;5048098;28;1794;-59
2021/09/30 13:21:53;;;;;;;;;;;;;;;21.75;58.75;101845.63;5044110;28;1580;-55
2021/09/30 13:24:20;;;;;;;;;;;;;;;21.77;58.56;101845.50;5039988;28;1536;-55
2021/09/30 13:26:48;;;;;;;;;;;;;;;21.79;58.39;101827.38;5028961;28;1580;-60
2021/09/30 13:29:14;;;;;;;;;;;;;;;21.76;58.51;101836.53;5025299;28;1582;-56
2021/09/30 13:31:41;;;;;;;;;;;;;;;21.79;58.54;101835.47;5033123;28;1604;-56
2021/09/30 13:34:08;;;;;;;;;;;;;;;21.76;58.50;101823.09;5044390;28;1580;-60
2021/09/30 13:36:34;;;;;;;;;;;;;;;21.78;58.32;101821.13;5044286;28;1906;-60
2021/09/30 13:39:01;;;;;;;;;;;;;;;21.75;58.69;101829.47;5028005;28;1794;-59
2021/09/30 13:41:27;;;;;;;;;;;;;;;21.77;58.20;101824.81;5024037;28;1592;-56
2021/09/30 13:43:55;;;;;;;;;;;;;;;21.79;58.52;101822.00;5026630;28;1555;-60
2021/09/30 13:46:22;;;;;;;;;;;;;;;21.80;57.88;101827.22;5029123;28;1580;-60
2021/09/30 13:48:49;;;;;;;;;;;;;;;21.78;58.69;101826.50;5040659;28;1617;-55
2021/09/30 13:51:15;;;;;;;;;;;;;;;21.76;58.42;101838.38;5026783;28;1094;-55
2021/09/30 13:53:42;;;;;;;;;;;;;;;21.78;58.81;101826.50;5038014;28;1720;-60
2021/09/30 13:56:08;;;;;;;;;;;;;;;21.81;58.74;101825.41;5038388;28;1906;-56
2021/09/30 13:58:35;;;;;;;;;;;;;;;21.79;58.00;101828.22;5028129;28;1254;-56
2021/09/30 14:01:03;;;;;;;;;;;;;;;21.79;58.18;101813.91;5043432;28;1497;-60
2021/09/30 14:03:30;;;;;;;;;;;;;;;21.77;58.69;101805.13;5045847;28;1863;-59
2021/09/30 14:05:58;;;;;;;;;;;;;;;21.75;58.40;101815.16;5023085;28;1708;-56
2021/09/30 14:08:28;;;;;;;;;;;;;;;21.74;59.03;101826.91;5031624;28;1813;-55
2021/09/30 14:10:55;;;;;;;;;;;;;;;21.76;58.35;101816.84;5027793;28;1499;-55
2021/09/30 14:13:22;;;;;;;;;;;;;;;21.76;58.71;101816.84;5044871;28;1569;-60
2021/09/30 14:15:49;;;;;;;;;;;;;;;21.74;58.72;101816.97;5043802;28;1099;-55
2021/09/30 14:18:17;;;;;;;;;;;;;;;21.75;58.77;101824.09;5028478;28;1902;-56
2021/09/30 14:20:44;;;;;;;;;;;;;;;21.75;58.75;101831.31;5025802;28;1511;-55
2021/09/30 14:23:10;;;;;;;;;;;;;;;21.76;58.83;101816.84;5028353;28;1686;-55
2021/09/30 14:25:37;;;;;;;;;;;;;;;21.71;58.74;101803.78;5043898;28;994;-60
2021/09/30 14:28:04;;;;;;;;;;;;;;;21.71;58.83;101825.31;5037400;28;1556;-56
2021/09/30 14:30:31;;;;;;;;;;;;;;;21.69;58.43;101823.75;5038628;28;1585;-59
2021/09/30 14:32:57;;;;;;;;;;;;;;;21.72;58.55;101815.41;5021790;28;1625;-56
2021/09/30 14:35:25;;;;;;;;;;;;;;;21.76;58.22;101833.84;5029450;28;1488;-57
2021/09/30 14:37:52;;;;;;;;;;;;;;;21.68;57.85;101809.41;5043373;28;1996;-56
2021/09/30 14:40:19;;;;;;;;;;;;;;;21.68;58.54;101822.88;5043557;28;1612;-55
2021/09/30 14:42:45;;;;;;;;;;;;;;;21.71;58.29;101814.56;5040673;28;1624;-60
2021/09/30 14:45:12;;;;;;;;;;;;;;;21.70;58.65;101809.28;5043044;28;1530;-60
2021/09/30 14:47:38;;;;;;;;;;;;;;;21.69;58.88;101804.91;5042468;28;1455;-55
2021/09/30 14:50:06;;;;;;;;;;;;;;;21.71;58.47;101813.72;5038662;28;1968;-56
2021/09/30 14:52:33;;;;;;;;;;;;;;;21.72;58.80;101816.25;5026952;28;1572;-60
2021/09/30 14:55:00;;;;;;;;;;;;;;;21.71;58.69;101801.09;5049576;28;1059;-60
2021/09/30 14:57:27;;;;;;;;;;;;;;;21.72;58.39;101816.25;5048610;28;1968;-55
2021/09/30 14:59:53;;;;;;;;;;;;;;;21.79;58.35;101809.38;5038867;28;1566;-60
2021/09/30 15:02:20;;;;;;;;;;;;;;;21.70;59.02;101804.75;5036641;28;1694;-61
2021/09/30 15:04:46;;;;;;;;;;;;;;;21.88;58.11;101823.06;5031972;28;1571;-60
2021/09/30 15:07:13;;;;;;;;;;;;;;;21.56;60.49;101822.03;5036002;28;1199;-65
2021/09/30 15:09:41;;;;;;;;;;;;;;;21.91;59.76;101826.34;5026563;28;1724;-60
2021/09/30 15:12:08;;;;;;;;;;;;;;;22.04;58.72;101839.63;5048252;28;1719;-64
2021/09/30 15:14:34;;;;;;;;;;;;;;;22.02;58.85;101833.50;5047556;28;1565;-63